Albany, IL (61230)

8:46 PM CDT on June 23, 2017 (GMT -0500)
Clinton Municipal | | Change Station

Elev 705 ft 41.83 °N, 90.33 °W | Updated 50 minutes ago

Clear
Clear
70 °F
Feels Like 70 °F
N
13
Wind Variable Wind from WNW

Today
High -- | Low -- °F
--% Chance of Precip.
Yesterday
High -- | Low -- °F
Precip. -- in
Pressure 29.91 in
Visibility 10.0 miles
Clouds Clear
Dew Point 57 °F
Humidity 63%
Rainfall 0.80 in
Snow Depth Not available.
5:26 AM 8:39 PM
Waning Crescent, 0% visible
METAR KCWI 240056Z AUTO 30011KT 10SM CLR 21/14 A2986 RMK AO2 SLP128 T02110139
Pressure 29.91 in
Visibility 10.0 miles
Clouds Clear
Dew Point 57 °F
Humidity 63%
Rainfall 0.80 in
Snow Depth Not available.
5:26 AM 8:39 PM
Waning Crescent, 0% visible
METAR KCWI 240056Z AUTO 30011KT 10SM CLR 21/14 A2986 RMK AO2 SLP128 T02110139

Get Severe Weather Alerts

Thanks for signing up!

Be on the lookout for a verification email in your inbox.

You'll start receiving the daily forecast at 6 AM.

×

10-Day Weather Forecast

Almanac

Astronomy

Jun. 23, 2017 Rise Set
Actual Time
Civil Twilight
Nautical Twilight
Astronomical Twilight
Moon
Length of Visible Light
Length of Day
Tomorrow will be .
, % of the Moon is Illuminated

Today's Extremes

State Highs State Lows

Community

WunderPhotos

Category 6

Welcome to Category 6. This is the collective home for Weather Underground's featured writeups by Dr. Jeff Masters (right), Bob Henson (left), Chris Burt, and other regular contributors.

Nearby

Air Quality

  Air Quality AQ Index Pollutant
Not available.

Snow Depth

Station Depth Elevation

Earthquake Activity

City Distance Mag. Time & Date
Minimum magnitude displayed is 2.5.

Coastal Water Temperatures

Place Temperature

Stations

Nearby Weather Stations

Station Location Temp. Windchill Dew Point Humidity Wind Precip. Elev Updated Type
                   

Watches & Warnings

There are currently no watches in effect.